Time;durP1;ratioP1;P1;durP2;ratioP2;P2;SDS_P1;SDS_P2;PMS_P1;PMS_P2;Temp;Humidity;BMP_temperature;BMP_pressure;BME280_temperature;BME280_humidity;BME280_pressure;Samples;Min_cycle;Max_cycle;Signal;HPM_P1;HPM_P2
2021/10/03 00:02:01;;;;;;;2.00;1.50;;;17.40;78.10;;;;;;10450115;28;20197;-66
2021/10/03 00:07:24;;;;;;;2.43;1.97;;;17.40;78.10;;;;;;10450519;28;20224;-64
2021/10/03 00:12:49;;;;;;;2.17;1.90;;;17.40;78.10;;;;;;10449256;28;20224;-65
2021/10/03 00:18:11;;;;;;;2.10;1.90;;;17.40;78.10;;;;;;10447342;28;20220;-65
2021/10/03 00:23:34;;;;;;;3.13;2.20;;;17.40;78.10;;;;;;10448944;28;20197;-66
2021/10/03 00:28:57;;;;;;;2.53;1.97;;;17.40;78.20;;;;;;10448334;28;20351;-65
2021/10/03 00:34:20;;;;;;;2.37;2.17;;;17.40;78.10;;;;;;10447582;28;20193;-65
2021/10/03 00:39:42;;;;;;;2.67;2.00;;;17.40;78.20;;;;;;10448942;28;20224;-66
2021/10/03 00:45:08;;;;;;;4.30;2.23;;;17.40;78.10;;;;;;10448902;28;20684;-66
2021/10/03 00:50:32;;;;;;;3.30;2.30;;;17.40;78.00;;;;;;10430336;28;20594;-66
2021/10/03 00:55:54;;;;;;;2.40;2.10;;;17.40;78.10;;;;;;10452911;28;20558;-62
2021/10/03 01:01:18;;;;;;;2.60;2.33;;;17.50;78.00;;;;;;10446002;28;20213;-63
2021/10/03 01:06:41;;;;;;;2.87;2.60;;;17.40;78.00;;;;;;10439949;28;20231;-63
2021/10/03 01:12:04;;;;;;;3.70;2.80;;;17.40;78.00;;;;;;10448860;28;20299;-64
2021/10/03 01:17:28;;;;;;;4.07;2.77;;;17.50;78.00;;;;;;10447943;28;20581;-63
2021/10/03 01:22:53;;;;;;;3.77;2.30;;;17.40;78.10;;;;;;10450893;28;20189;-63
2021/10/03 01:28:17;;;;;;;3.87;2.83;;;17.50;78.00;;;;;;10456585;28;20239;-65
2021/10/03 01:33:40;;;;;;;2.93;2.57;;;17.50;78.00;;;;;;10455778;28;20208;-62
2021/10/03 01:39:04;;;;;;;3.50;2.80;;;17.50;78.10;;;;;;10455562;28;20209;-67
2021/10/03 01:44:26;;;;;;;2.83;2.50;;;17.50;78.20;;;;;;10455763;28;20578;-64
2021/10/03 01:49:48;;;;;;;3.93;2.57;;;17.40;78.10;;;;;;10453589;28;20224;-65
2021/10/03 01:55:16;;;;;;;4.93;2.90;;;17.50;78.20;;;;;;10417349;28;20193;-65
2021/10/03 02:00:40;;;;;;;2.90;2.70;;;17.50;78.50;;;;;;10452895;28;20216;-63
2021/10/03 02:06:02;;;;;;;3.27;2.50;;;17.50;78.90;;;;;;10448923;28;20197;-64
2021/10/03 02:11:28;;;;;;;2.60;2.40;;;17.50;78.20;;;;;;10453665;28;20232;-64
2021/10/03 02:16:51;;;;;;;2.50;2.30;;;17.50;78.50;;;;;;10453981;28;20193;-66
2021/10/03 02:22:14;;;;;;;2.90;2.60;;;17.50;78.30;;;;;;10444100;28;20189;-64
2021/10/03 02:27:38;;;;;;;3.77;2.43;;;17.50;78.20;;;;;;10454770;28;20615;-67
2021/10/03 02:33:00;;;;;;;2.37;2.17;;;17.50;78.20;;;;;;10451714;28;20224;-63
2021/10/03 02:38:25;;;;;;;3.43;3.13;;;17.50;78.50;;;;;;10452699;28;20209;-63
2021/10/03 02:43:52;;;;;;;3.03;2.73;;;17.50;78.40;;;;;;10459072;28;20189;-67
2021/10/03 02:49:14;;;;;;;4.13;2.63;;;17.50;78.50;;;;;;10452190;28;20216;-68
2021/10/03 02:54:36;;;;;;;2.97;2.67;;;17.50;78.60;;;;;;10414197;28;20555;-65
2021/10/03 03:00:00;;;;;;;3.00;2.47;;;17.50;78.50;;;;;;10451204;28;20210;-66
2021/10/03 03:05:22;;;;;;;3.83;3.00;;;17.50;78.60;;;;;;10453639;28;20201;-63
2021/10/03 03:10:44;;;;;;;2.90;2.40;;;17.50;78.50;;;;;;10452895;28;20709;-63
2021/10/03 03:16:08;;;;;;;3.83;2.50;;;17.50;78.60;;;;;;10452692;28;20216;-64
2021/10/03 03:21:30;;;;;;;2.90;2.60;;;17.50;78.70;;;;;;10448612;28;20225;-67
2021/10/03 03:26:52;;;;;;;2.67;2.47;;;17.50;78.70;;;;;;10451146;28;20193;-63
2021/10/03 03:32:16;;;;;;;3.23;2.70;;;17.50;78.70;;;;;;10450496;28;20217;-63
2021/10/03 03:37:38;;;;;;;3.13;2.63;;;17.50;78.70;;;;;;10450941;28;20582;-63
2021/10/03 03:43:00;;;;;;;3.37;2.37;;;17.50;78.80;;;;;;10451406;28;20189;-63
2021/10/03 03:48:24;;;;;;;3.93;2.53;;;17.50;78.70;;;;;;10449708;28;20224;-64
2021/10/03 03:53:46;;;;;;;3.07;2.77;;;17.50;78.80;;;;;;10449897;28;20670;-67
2021/10/03 03:59:08;;;;;;;3.23;2.67;;;17.50;78.80;;;;;;10437049;28;20209;-63
2021/10/03 04:04:31;;;;;;;2.77;2.57;;;17.50;78.90;;;;;;10457194;28;20197;-64
2021/10/03 04:09:53;;;;;;;2.90;2.40;;;17.50;78.90;;;;;;10450367;28;20213;-63
2021/10/03 04:15:16;;;;;;;2.90;2.60;;;17.50;78.90;;;;;;10450695;28;20200;-63
2021/10/03 04:20:40;;;;;;;2.40;2.20;;;17.50;79.00;;;;;;10450241;28;20220;-66
2021/10/03 04:26:02;;;;;;;3.13;2.60;;;17.50;79.10;;;;;;10448163;28;20200;-67
2021/10/03 04:31:24;;;;;;;3.47;2.60;;;17.50;79.00;;;;;;10438309;28;20737;-65
2021/10/03 04:36:48;;;;;;;2.43;2.23;;;17.50;79.10;;;;;;10448912;28;20772;-66
2021/10/03 04:42:10;;;;;;;2.73;2.50;;;17.50;79.10;;;;;;10449159;28;20193;-66
2021/10/03 04:47:32;;;;;;;3.10;2.30;;;17.50;79.10;;;;;;10449246;28;20705;-66
2021/10/03 04:52:56;;;;;;;2.30;2.10;;;17.40;79.00;;;;;;10448445;28;20221;-63
2021/10/03 04:58:18;;;;;;;3.30;2.63;;;17.50;79.20;;;;;;10453228;28;20217;-65
2021/10/03 05:03:40;;;;;;;2.90;2.67;;;17.50;79.10;;;;;;10456567;28;20196;-67
2021/10/03 05:09:04;;;;;;;2.83;2.57;;;17.50;79.20;;;;;;10454621;28;20224;-64
2021/10/03 05:14:26;;;;;;;3.40;2.50;;;17.50;79.70;;;;;;10455793;28;20558;-64
2021/10/03 05:19:48;;;;;;;2.93;2.70;;;17.50;79.30;;;;;;10456421;23;20441;-69
2021/10/03 05:25:12;;;;;;;3.20;2.70;;;17.50;79.20;;;;;;10519228;28;20203;-69
2021/10/03 05:30:34;;;;;;;2.97;2.30;;;17.50;79.20;;;;;;10540668;28;20219;-69
2021/10/03 05:35:56;;;;;;;3.00;2.40;;;17.50;79.20;;;;;;10542125;28;20195;-69
2021/10/03 05:41:19;;;;;;;2.47;2.23;;;17.50;79.00;;;;;;10504620;28;20711;-69
2021/10/03 05:46:41;;;;;;;3.53;2.80;;;17.50;79.00;;;;;;10516494;28;20211;-69
2021/10/03 05:52:04;;;;;;;3.30;2.57;;;17.50;79.00;;;;;;10519641;28;20227;-69
2021/10/03 05:57:28;;;;;;;2.40;2.20;;;17.50;79.00;;;;;;10512327;28;20207;-69
2021/10/03 06:02:50;;;;;;;2.63;2.43;;;17.50;79.00;;;;;;10517043;28;20580;-69
2021/10/03 06:08:15;;;;;;;4.03;2.70;;;17.50;79.00;;;;;;10524378;28;20199;-69
2021/10/03 06:13:40;;;;;;;2.50;2.30;;;17.50;78.90;;;;;;10539728;28;20222;-69
2021/10/03 06:19:02;;;;;;;2.67;2.40;;;17.50;79.10;;;;;;10523380;28;20329;-69
2021/10/03 06:24:24;;;;;;;2.67;2.47;;;17.50;79.00;;;;;;10496281;28;20196;-69
2021/10/03 06:29:48;;;;;;;2.83;2.57;;;17.50;79.00;;;;;;10490399;28;20228;-69
2021/10/03 06:35:10;;;;;;;2.70;2.37;;;17.50;79.10;;;;;;10532277;28;20215;-69
2021/10/03 06:40:32;;;;;;;2.53;2.10;;;17.50;79.10;;;;;;10541525;28;20208;-70
2021/10/03 06:45:55;;;;;;;4.00;2.60;;;17.50;79.00;;;;;;10523814;28;20201;-69
2021/10/03 06:51:18;;;;;;;3.80;2.43;;;17.50;78.90;;;;;;10496805;28;20698;-69
2021/10/03 06:56:40;;;;;;;2.93;2.20;;;17.50;78.90;;;;;;10496153;28;20196;-69
2021/10/03 07:02:11;;;;;;;2.90;2.60;;;17.50;78.90;;;;;;10503593;28;20207;-69
2021/10/03 07:07:33;;;;;;;4.20;2.70;;;17.50;78.90;;;;;;10538151;28;20196;-70
2021/10/03 07:12:55;;;;;;;2.80;2.33;;;17.50;78.90;;;;;;10537913;28;20582;-69
2021/10/03 07:18:18;;;;;;;2.60;2.40;;;17.50;78.80;;;;;;10494467;28;20634;-69
2021/10/03 07:23:41;;;;;;;2.93;2.67;;;17.50;78.90;;;;;;10494188;28;20195;-69
2021/10/03 07:29:03;;;;;;;2.63;2.40;;;17.50;78.90;;;;;;10491136;28;20227;-70
2021/10/03 07:34:28;;;;;;;3.30;2.50;;;17.50;78.90;;;;;;10516006;28;20595;-70
2021/10/03 07:39:50;;;;;;;4.40;2.40;;;17.60;79.00;;;;;;10498775;28;20216;-69
2021/10/03 07:45:13;;;;;;;3.40;2.50;;;17.50;79.00;;;;;;10494732;28;20203;-69
2021/10/03 07:50:36;;;;;;;2.60;2.30;;;17.50;79.00;;;;;;10490602;28;20220;-70
2021/10/03 07:55:58;;;;;;;2.53;2.33;;;17.50;79.00;;;;;;10485578;28;20207;-70
2021/10/03 08:01:21;;;;;;;3.67;2.87;;;17.50;79.00;;;;;;10493558;28;20212;-70
2021/10/03 08:06:44;;;;;;;3.40;2.87;;;17.50;79.00;;;;;;10495582;28;20199;-69
2021/10/03 08:12:07;;;;;;;2.67;2.47;;;17.50;79.20;;;;;;10497132;28;20228;-70
2021/10/03 08:17:29;;;;;;;3.70;2.90;;;17.50;79.00;;;;;;10493316;28;20201;-71
2021/10/03 08:22:54;;;;;;;2.90;2.57;;;17.50;79.00;;;;;;10492833;28;20231;-70
2021/10/03 08:28:16;;;;;;;4.93;2.73;;;17.50;79.00;;;;;;10492837;28;20675;-70
2021/10/03 08:33:38;;;;;;;2.73;2.50;;;17.60;79.10;;;;;;10491444;28;20220;-70
2021/10/03 08:39:02;;;;;;;2.67;2.47;;;17.60;79.00;;;;;;10494179;28;20694;-71
2021/10/03 08:44:27;;;;;;;3.87;3.00;;;17.60;79.10;;;;;;10493111;28;20192;-69
2021/10/03 08:49:50;;;;;;;2.63;2.30;;;17.60;79.10;;;;;;10492543;28;20208;-70
2021/10/03 08:55:15;;;;;;;3.53;2.73;;;17.50;79.00;;;;;;10492900;28;20571;-70
2021/10/03 09:00:45;;;;;;;3.13;2.43;;;17.50;79.00;;;;;;10492184;28;20590;-70
2021/10/03 09:06:08;;;;;;;3.03;2.73;;;17.50;79.00;;;;;;10492243;28;20192;-69
2021/10/03 09:11:37;;;;;;;4.37;2.80;;;17.50;79.00;;;;;;10508989;28;20219;-70
2021/10/03 09:16:59;;;;;;;3.07;2.77;;;17.50;79.10;;;;;;10492816;28;20200;-70
2021/10/03 09:22:21;;;;;;;2.67;2.47;;;17.50;78.90;;;;;;10482733;28;20228;-70
2021/10/03 09:27:48;;;;;;;2.67;2.40;;;17.50;79.00;;;;;;10490751;28;20193;-70
2021/10/03 09:33:10;;;;;;;3.50;2.60;;;17.60;79.00;;;;;;10492885;28;20216;-70
2021/10/03 09:38:43;;;;;;;2.60;2.40;;;17.60;78.90;;;;;;10529675;28;20211;-70
2021/10/03 09:44:10;;;;;;;3.40;2.57;;;17.50;78.90;;;;;;10536848;28;20184;-70
2021/10/03 09:49:33;;;;;;;3.13;2.60;;;17.50;78.90;;;;;;10520178;28;20222;-70
2021/10/03 09:54:57;;;;;;;2.80;2.43;;;17.50;78.90;;;;;;10507780;28;20217;-70
2021/10/03 10:00:23;;;;;;;3.00;2.70;;;17.50;78.80;;;;;;10497647;28;20216;-70
2021/10/03 10:05:45;;;;;;;2.80;2.47;;;17.50;78.80;;;;;;10496876;28;20192;-70
2021/10/03 10:11:12;;;;;;;2.60;2.40;;;17.50;78.70;;;;;;10493303;28;20303;-70
2021/10/03 10:16:41;;;;;;;2.70;2.50;;;17.50;78.70;;;;;;10488572;28;20200;-70
2021/10/03 10:22:37;;;;;;;2.70;2.50;;;17.50;78.70;;;;;;10482266;28;20224;-69
2021/10/03 10:28:05;;;;;;;2.53;2.33;;;17.50;78.40;;;;;;10497335;28;20210;-70
2021/10/03 10:33:28;;;;;;;3.40;2.60;;;17.50;78.60;;;;;;10495463;28;20299;-70
2021/10/03 10:39:16;;;;;;;2.60;2.40;;;17.50;78.50;;;;;;10496367;28;20219;-70
2021/10/03 10:44:40;;;;;;;2.40;2.20;;;17.50;78.30;;;;;;10502862;28;20187;-70
2021/10/03 10:50:14;;;;;;;2.50;2.30;;;17.50;78.40;;;;;;10500769;28;20220;-70
2021/10/03 10:55:36;;;;;;;2.87;2.57;;;17.50;78.30;;;;;;10452701;28;20185;-70
2021/10/03 11:01:13;;;;;;;2.83;2.53;;;17.50;78.30;;;;;;10455111;28;20719;-70
2021/10/03 11:07:06;;;;;;;2.63;2.30;;;17.60;78.30;;;;;;10454838;28;20200;-69
2021/10/03 11:12:33;;;;;;;2.70;2.30;;;17.50;78.00;;;;;;10494463;28;20213;-70
2021/10/03 11:18:04;;;;;;;2.27;2.07;;;17.60;78.40;;;;;;10495384;28;20196;-70
2021/10/03 11:23:27;;;;;;;2.40;2.20;;;17.60;78.30;;;;;;10488995;22;20230;-66
2021/10/03 11:28:51;;;;;;;2.23;2.03;;;17.60;78.50;;;;;;10472252;28;20221;-65
2021/10/03 11:34:26;;;;;;;4.17;2.30;;;17.60;78.50;;;;;;10452898;28;20208;-64
2021/10/03 11:39:52;;;;;;;2.83;2.60;;;17.60;78.60;;;;;;10437832;28;20692;-65
2021/10/03 11:45:16;;;;;;;2.20;2.00;;;17.60;78.80;;;;;;10448644;28;20360;-64
2021/10/03 11:50:42;;;;;;;2.13;1.97;;;17.60;78.80;;;;;;10451811;28;20220;-64
2021/10/03 11:56:11;;;;;;;2.37;2.17;;;17.60;78.90;;;;;;10450340;28;20679;-61
2021/10/03 12:01:33;;;;;;;2.73;2.10;;;17.50;78.90;;;;;;10450280;28;20227;-64
2021/10/03 12:06:55;;;;;;;3.53;2.27;;;17.50;78.80;;;;;;10450824;28;20193;-62
2021/10/03 12:12:19;;;;;;;2.80;2.00;;;17.50;78.90;;;;;;10448501;28;20212;-63
2021/10/03 12:17:47;;;;;;;2.47;2.23;;;17.60;78.90;;;;;;10451119;28;20217;-63
2021/10/03 12:23:09;;;;;;;2.20;1.90;;;17.60;78.90;;;;;;10419295;28;20205;-65
2021/10/03 12:29:10;;;;;;;2.40;2.20;;;17.60;78.90;;;;;;10409473;28;20595;-64
2021/10/03 12:34:41;;;;;;;2.47;2.27;;;17.60;78.80;;;;;;10409029;28;20209;-65
2021/10/03 12:40:08;;;;;;;2.77;2.17;;;17.50;78.90;;;;;;10407327;28;20695;-65
2021/10/03 12:45:30;;;;;;;2.30;2.10;;;17.50;78.90;;;;;;10442519;28;20185;-67
2021/10/03 12:50:53;;;;;;;2.50;2.10;;;17.60;78.90;;;;;;10450051;28;20248;-63
2021/10/03 12:56:16;;;;;;;2.20;2.00;;;17.60;78.90;;;;;;10450247;28;20200;-64
2021/10/03 13:01:38;;;;;;;2.77;2.10;;;17.50;78.80;;;;;;10448987;28;20220;-64
2021/10/03 13:07:01;;;;;;;2.17;1.97;;;17.60;78.90;;;;;;10431979;28;20663;-65
2021/10/03 13:12:24;;;;;;;2.60;1.87;;;17.60;78.90;;;;;;10409411;28;20227;-68
2021/10/03 13:17:47;;;;;;;2.37;2.00;;;17.60;78.90;;;;;;10449381;28;20578;-68
2021/10/03 13:23:11;;;;;;;2.23;1.87;;;17.60;78.90;;;;;;10456311;28;20212;-64
2021/10/03 13:28:33;;;;;;;2.23;2.03;;;17.60;78.80;;;;;;10437483;28;20224;-65
2021/10/03 13:33:55;;;;;;;2.80;2.20;;;17.60;78.80;;;;;;10426267;28;20218;-65
2021/10/03 13:39:19;;;;;;;2.70;2.00;;;17.60;78.70;;;;;;10416586;28;20222;-64
2021/10/03 13:44:41;;;;;;;2.73;1.90;;;17.60;78.80;;;;;;10414568;28;20189;-65
2021/10/03 13:50:04;;;;;;;2.17;1.97;;;17.50;78.80;;;;;;10447785;28;20236;-64
2021/10/03 13:55:28;;;;;;;2.30;2.10;;;17.60;78.80;;;;;;10455092;28;20217;-67
2021/10/03 14:00:51;;;;;;;2.43;2.07;;;17.60;78.80;;;;;;10454826;28;20579;-64
2021/10/03 14:06:13;;;;;;;2.50;1.90;;;17.60;78.70;;;;;;10443490;28;20204;-63
2021/10/03 14:11:37;;;;;;;3.03;2.00;;;17.60;78.70;;;;;;10454367;28;20235;-64
2021/10/03 14:16:59;;;;;;;2.97;2.10;;;17.60;78.70;;;;;;10456270;28;20204;-63
2021/10/03 14:22:21;;;;;;;2.13;1.93;;;17.60;78.70;;;;;;10453797;28;20204;-63
2021/10/03 14:27:45;;;;;;;2.00;1.73;;;17.60;78.70;;;;;;10455520;28;20555;-63
2021/10/03 14:33:07;;;;;;;2.10;1.90;;;17.60;78.70;;;;;;10453879;28;20555;-65
2021/10/03 14:38:30;;;;;;;3.03;2.23;;;17.60;78.70;;;;;;10443449;28;20712;-63
2021/10/03 14:43:53;;;;;;;2.60;2.03;;;17.60;78.60;;;;;;10442222;28;20189;-61
2021/10/03 14:49:15;;;;;;;2.30;2.10;;;17.60;78.60;;;;;;10454598;28;20213;-65
2021/10/03 14:54:39;;;;;;;2.73;2.03;;;17.60;78.60;;;;;;10453024;28;20220;-63
2021/10/03 15:00:03;;;;;;;2.30;2.10;;;17.60;78.60;;;;;;10452952;28;20597;-60
2021/10/03 15:05:25;;;;;;;2.53;2.33;;;17.60;78.60;;;;;;10453096;28;20574;-64
2021/10/03 15:10:47;;;;;;;2.33;2.13;;;17.60;78.70;;;;;;10449954;28;20224;-61
2021/10/03 15:16:11;;;;;;;3.27;1.90;;;17.60;78.70;;;;;;10449012;28;20659;-62
2021/10/03 15:21:33;;;;;;;2.27;2.07;;;17.60;78.70;;;;;;10449133;28;20311;-64
2021/10/03 15:26:55;;;;;;;2.13;1.93;;;17.60;78.70;;;;;;10426903;28;20587;-62
2021/10/03 15:32:19;;;;;;;2.37;2.17;;;17.60;78.70;;;;;;10410624;28;20217;-63
2021/10/03 15:37:42;;;;;;;2.97;2.30;;;17.60;78.70;;;;;;10411233;28;20220;-64
2021/10/03 15:43:04;;;;;;;3.57;2.73;;;17.60;78.70;;;;;;10419109;28;20654;-67
2021/10/03 15:48:32;;;;;;;4.00;2.70;;;17.60;78.60;;;;;;10449189;28;20217;-65
2021/10/03 15:53:54;;;;;;;4.43;2.80;;;17.60;78.70;;;;;;10449156;28;20209;-62
2021/10/03 15:59:16;;;;;;;3.67;2.77;;;17.60;78.70;;;;;;10449065;28;20578;-63
2021/10/03 16:04:39;;;;;;;3.73;2.73;;;17.60;78.70;;;;;;10447679;28;20197;-63
2021/10/03 16:10:02;;;;;;;3.53;2.87;;;17.60;78.80;;;;;;10445251;28;20220;-62
2021/10/03 16:15:26;;;;;;;4.17;3.30;;;17.60;78.90;;;;;;10450075;28;20224;-65
2021/10/03 16:20:49;;;;;;;3.53;2.57;;;17.60;78.80;;;;;;10447166;28;20233;-63
2021/10/03 16:26:13;;;;;;;2.73;2.53;;;17.60;78.80;;;;;;10409200;28;20698;-62
2021/10/03 16:31:35;;;;;;;3.10;2.43;;;17.60;78.80;;;;;;10409352;28;20679;-65
2021/10/03 16:36:59;;;;;;;3.13;2.70;;;17.60;78.70;;;;;;10408227;28;20202;-67
2021/10/03 16:42:21;;;;;;;3.73;2.67;;;17.60;78.80;;;;;;10409460;28;20963;-65
2021/10/03 16:47:43;;;;;;;3.63;2.97;;;17.60;78.70;;;;;;10427191;28;20213;-65
2021/10/03 16:53:06;;;;;;;5.20;2.90;;;17.60;78.80;;;;;;10441104;28;20213;-63
2021/10/03 16:58:29;;;;;;;6.70;3.90;;;17.60;78.70;;;;;;10461763;28;20621;-63
2021/10/03 17:03:51;;;;;;;4.00;2.90;;;17.70;78.80;;;;;;10490285;28;20192;-63
2021/10/03 17:09:14;;;;;;;2.90;2.60;;;17.70;78.90;;;;;;10490413;28;20219;-62
2021/10/03 17:14:36;;;;;;;3.10;2.80;;;17.70;78.90;;;;;;10452355;28;20697;-64
2021/10/03 17:19:59;;;;;;;3.53;2.90;;;17.60;78.90;;;;;;10473752;22;20236;-66
2021/10/03 17:25:22;;;;;;;2.70;2.50;;;17.70;79.00;;;;;;10400484;28;20581;-65
2021/10/03 17:30:46;;;;;;;3.20;2.40;;;17.70;79.20;;;;;;10401118;28;20214;-65
2021/10/03 17:36:09;;;;;;;2.60;2.23;;;17.70;79.10;;;;;;10356068;28;20227;-65
2021/10/03 17:41:32;;;;;;;3.77;3.10;;;17.70;79.30;;;;;;10321810;28;20231;-64
2021/10/03 17:46:54;;;;;;;3.43;2.53;;;17.70;79.30;;;;;;10337527;28;20202;-65
2021/10/03 17:52:17;;;;;;;3.03;2.30;;;17.60;79.30;;;;;;10364033;28;20218;-64
2021/10/03 17:57:41;;;;;;;2.70;2.50;;;17.70;79.50;;;;;;10365374;28;20198;-65
2021/10/03 18:03:03;;;;;;;2.97;2.37;;;17.60;79.40;;;;;;10363159;28;20222;-65
2021/10/03 18:08:25;;;;;;;4.63;2.30;;;17.70;79.40;;;;;;10336520;28;20206;-66
2021/10/03 18:13:49;;;;;;;2.73;2.30;;;17.70;79.50;;;;;;10356261;28;20230;-66
2021/10/03 18:19:11;;;;;;;2.87;2.63;;;17.70;79.40;;;;;;10334408;28;20195;-65
2021/10/03 18:24:33;;;;;;;3.50;2.80;;;17.70;79.30;;;;;;10333993;28;20226;-65
2021/10/03 18:29:57;;;;;;;3.90;2.43;;;17.70;79.40;;;;;;10341102;28;20214;-62
2021/10/03 18:35:21;;;;;;;2.97;2.60;;;17.70;79.50;;;;;;10373393;28;20230;-64
2021/10/03 18:40:43;;;;;;;3.70;2.60;;;17.70;79.80;;;;;;10372404;28;20225;-65
2021/10/03 18:46:07;;;;;;;2.73;2.53;;;17.70;80.00;;;;;;10367805;28;20202;-64
2021/10/03 18:51:29;;;;;;;4.00;2.87;;;17.70;80.10;;;;;;10348762;28;20219;-64
2021/10/03 18:56:51;;;;;;;2.70;2.50;;;17.70;80.20;;;;;;10351923;28;20663;-64
2021/10/03 19:02:15;;;;;;;3.17;2.53;;;17.70;80.20;;;;;;10337208;28;20211;-64
2021/10/03 19:07:37;;;;;;;2.97;2.60;;;17.70;80.10;;;;;;10339254;28;20201;-64
2021/10/03 19:12:59;;;;;;;5.17;2.90;;;17.70;80.10;;;;;;10343053;28;20225;-65
2021/10/03 19:18:23;;;;;;;4.43;2.20;;;17.70;80.20;;;;;;10335334;28;20203;-65
2021/10/03 19:23:45;;;;;;;2.40;2.13;;;17.70;80.30;;;;;;10351369;28;20232;-64
2021/10/03 19:29:08;;;;;;;2.87;2.13;;;17.70;80.50;;;;;;10372183;28;20202;-63
2021/10/03 19:34:32;;;;;;;2.30;1.63;;;17.70;80.70;;;;;;10343944;28;20231;-64
2021/10/03 19:39:54;;;;;;;4.27;2.43;;;17.70;80.70;;;;;;10353788;28;20201;-64
2021/10/03 19:45:18;;;;;;;3.30;1.80;;;17.70;80.60;;;;;;10366803;28;20206;-64
2021/10/03 19:50:41;;;;;;;2.37;1.90;;;17.70;80.60;;;;;;10330764;28;20678;-64
2021/10/03 19:56:05;;;;;;;1.77;1.67;;;17.70;80.50;;;;;;10346295;28;20222;-65
2021/10/03 20:01:28;;;;;;;2.00;1.80;;;17.70;80.50;;;;;;10330783;28;20226;-64
2021/10/03 20:06:51;;;;;;;1.73;1.63;;;17.70;80.50;;;;;;10340406;28;20252;-64
2021/10/03 20:12:13;;;;;;;1.67;1.50;;;17.70;80.50;;;;;;10369462;28;20222;-64
2021/10/03 20:17:36;;;;;;;1.80;1.60;;;17.70;80.40;;;;;;10352457;28;20198;-65
2021/10/03 20:22:59;;;;;;;1.83;1.30;;;17.60;80.30;;;;;;10337298;28;20218;-64
2021/10/03 20:28:22;;;;;;;1.33;1.17;;;17.60;80.30;;;;;;10367546;28;20201;-66
2021/10/03 20:33:44;;;;;;;1.60;1.27;;;17.60;80.30;;;;;;10329199;28;20365;-64
2021/10/03 20:39:07;;;;;;;2.13;1.13;;;17.60;80.20;;;;;;10358196;28;20190;-64
2021/10/03 20:44:29;;;;;;;1.17;1.07;;;17.60;80.10;;;;;;10360963;28;20218;-65
2021/10/03 20:49:51;;;;;;;1.33;1.10;;;17.60;80.20;;;;;;10334473;28;20206;-64
2021/10/03 20:55:15;;;;;;;1.10;1.00;;;17.60;80.10;;;;;;10328354;28;20225;-65
2021/10/03 21:00:38;;;;;;;1.23;1.03;;;17.60;80.10;;;;;;10328363;28;20229;-64
2021/10/03 21:06:00;;;;;;;1.70;0.80;;;17.60;79.80;;;;;;10328716;28;20218;-64
2021/10/03 21:11:23;;;;;;;1.00;0.90;;;17.60;79.50;;;;;;10328870;28;20218;-64
2021/10/03 21:16:45;;;;;;;0.70;0.70;;;17.60;79.40;;;;;;10343685;28;20221;-65
2021/10/03 21:22:07;;;;;;;1.20;0.70;;;17.60;79.30;;;;;;10359269;28;20222;-65
2021/10/03 21:27:31;;;;;;;0.60;0.60;;;17.60;79.00;;;;;;10367755;28;20202;-65
2021/10/03 21:32:53;;;;;;;0.90;0.60;;;17.60;78.70;;;;;;10367957;28;20211;-65
2021/10/03 21:38:16;;;;;;;0.90;0.50;;;17.50;78.10;;;;;;10366629;28;20217;-65
2021/10/03 21:43:39;;;;;;;0.83;0.37;;;17.60;77.60;;;;;;10375988;28;20715;-65
2021/10/03 21:49:02;;;;;;;0.80;0.47;;;17.50;77.40;;;;;;10345625;28;20207;-63
2021/10/03 21:54:24;;;;;;;0.40;0.30;;;17.60;77.30;;;;;;10336547;28;20734;-64
2021/10/03 21:59:48;;;;;;;0.80;0.23;;;17.60;77.20;;;;;;10334993;28;20195;-64
2021/10/03 22:05:10;;;;;;;0.37;0.20;;;17.60;77.20;;;;;;10352176;28;20282;-64
2021/10/03 22:10:33;;;;;;;1.13;0.40;;;17.50;77.00;;;;;;10334497;28;20698;-65
2021/10/03 22:15:57;;;;;;;1.37;0.30;;;17.50;76.90;;;;;;10345862;28;20217;-64
2021/10/03 22:21:19;;;;;;;0.20;0.20;;;17.50;76.70;;;;;;10370370;28;20701;-64
2021/10/03 22:26:41;;;;;;;0.20;0.20;;;17.50;76.60;;;;;;10374726;28;20199;-64
2021/10/03 22:32:06;;;;;;;0.30;0.30;;;17.50;76.60;;;;;;10374442;28;20713;-64
2021/10/03 22:37:28;;;;;;;0.37;0.30;;;17.50;76.40;;;;;;10349660;28;20230;-65
2021/10/03 22:42:50;;;;;;;0.37;0.30;;;17.50;76.30;;;;;;10332893;28;20231;-65
2021/10/03 22:48:13;;;;;;;0.37;0.20;;;17.50;76.20;;;;;;10347597;28;20258;-64
2021/10/03 22:53:35;;;;;;;0.37;0.37;;;17.50;76.00;;;;;;10331386;28;20725;-64
2021/10/03 22:58:57;;;;;;;0.90;0.30;;;17.50;76.00;;;;;;10332660;28;20191;-65
2021/10/03 23:04:21;;;;;;;2.20;0.40;;;17.50;75.80;;;;;;10356210;28;20222;-64
2021/10/03 23:09:43;;;;;;;0.80;0.30;;;17.50;75.80;;;;;;10371683;28;20198;-64
2021/10/03 23:15:09;;;;;;;0.20;0.20;;;17.50;75.60;;;;;;10365883;28;20682;-65
2021/10/03 23:20:33;;;;;;;1.40;0.40;;;17.50;75.50;;;;;;10330693;28;20231;-64
2021/10/03 23:25:57;;;;;;;1.47;0.27;;;17.50;75.40;;;;;;10454300;23;20228;-63
2021/10/03 23:31:19;;;;;;;0.60;0.30;;;17.50;75.30;;;;;;10414928;28;20210;-63
2021/10/03 23:36:46;;;;;;;0.30;0.30;;;17.40;75.00;;;;;;10412129;28;20444;-63
2021/10/03 23:42:09;;;;;;;0.63;0.43;;;17.40;75.00;;;;;;10411210;28;20286;-65
2021/10/03 23:47:31;;;;;;;1.60;0.50;;;17.50;74.90;;;;;;10411475;28;20213;-65
2021/10/03 23:52:54;;;;;;;0.73;0.20;;;17.50;74.80;;;;;;10421855;28;20205;-64
2021/10/03 23:58:16;;;;;;;0.90;0.40;;;17.40;74.50;;;;;;10451266;28;20228;-64
